createdAt,value
2022-07-27T00:01:17.434Z,21.13
2022-07-27T00:04:04.352Z,19.38
2022-07-27T00:06:37.336Z,24.35
2022-07-27T00:09:26.271Z,24.13
2022-07-27T00:12:06.258Z,23.60
2022-07-27T00:14:53.286Z,21.30
2022-07-27T00:17:26.384Z,21.25
2022-07-27T00:20:13.300Z,22.35
2022-07-27T00:22:53.275Z,19.75
2022-07-27T00:25:40.288Z,22.33
2022-07-27T00:28:20.295Z,23.58
2022-07-27T00:31:07.318Z,20.23
2022-07-27T00:33:47.291Z,22.27
2022-07-27T00:36:41.278Z,20.83
2022-07-27T00:39:35.287Z,19.70
2022-07-27T00:42:34.279Z,22.70
2022-07-27T00:45:22.290Z,20.30
2022-07-27T00:47:55.418Z,20.83
2022-07-27T00:50:43.294Z,20.00
2022-07-27T00:53:24.309Z,20.85
2022-07-27T00:56:18.286Z,22.45
2022-07-27T00:59:05.307Z,22.45
2022-07-27T01:01:40.582Z,21.85
2022-07-27T01:04:27.290Z,22.38
2022-07-27T01:07:01.401Z,22.52
2022-07-27T01:10:04.285Z,21.63
2022-07-27T01:12:45.298Z,22.90
2022-07-27T01:15:39.336Z,20.60
2022-07-27T01:18:39.326Z,20.63
2022-07-27T01:21:22.293Z,20.40
2022-07-27T01:24:17.313Z,21.00
2022-07-27T01:27:04.319Z,23.80
2022-07-27T01:29:45.306Z,22.27
2022-07-27T01:32:32.322Z,21.08
2022-07-27T01:35:12.329Z,20.55
2022-07-27T01:38:06.360Z,21.25
2022-07-27T01:40:53.322Z,22.35
2022-07-27T01:43:34.294Z,21.92
2022-07-27T01:46:22.321Z,22.27
2022-07-27T01:48:55.516Z,21.85
2022-07-27T01:51:42.327Z,22.05
2022-07-27T01:54:23.331Z,21.20
2022-07-27T01:57:10.292Z,23.90
2022-07-27T01:59:50.355Z,23.40
2022-07-27T02:02:44.331Z,22.30
2022-07-27T02:05:31.374Z,21.02
2022-07-27T02:08:11.376Z,21.00
2022-07-27T02:11:17.346Z,23.58
2022-07-27T02:13:59.327Z,24.95
2022-07-27T02:16:53.318Z,19.73
2022-07-27T02:19:40.336Z,20.08
2022-07-27T02:22:22.327Z,21.33
2022-07-27T02:25:11.436Z,21.80
2022-07-27T02:27:52.355Z,22.77
2022-07-27T02:30:46.335Z,19.75
2022-07-27T02:33:33.345Z,21.75
2022-07-27T02:36:06.466Z,21.17
2022-07-27T02:38:53.353Z,23.17
2022-07-27T02:41:26.429Z,23.10
2022-07-27T02:44:13.347Z,22.27
2022-07-27T02:46:47.478Z,24.40
2022-07-27T02:49:34.350Z,22.90
2022-07-27T02:52:07.527Z,21.27
2022-07-27T02:54:54.392Z,23.73
2022-07-27T02:57:34.366Z,22.13
2022-07-27T03:00:30.468Z,23.60
2022-07-27T03:03:24.373Z,22.48
2022-07-27T03:06:31.401Z,23.58
2022-07-27T03:09:32.765Z,21.17
2022-07-27T03:12:27.350Z,22.90
2022-07-27T03:15:21.382Z,22.13
2022-07-27T03:18:08.388Z,22.13
2022-07-27T03:20:41.465Z,20.52
2022-07-27T03:23:28.385Z,21.90
2022-07-27T03:26:08.392Z,22.70
2022-07-27T03:28:55.385Z,20.90
2022-07-27T03:31:28.628Z,22.40
2022-07-27T03:34:15.361Z,23.92
2022-07-27T03:36:48.505Z,23.05
2022-07-27T03:39:35.361Z,23.00
2022-07-27T03:42:08.463Z,19.92
2022-07-27T03:44:55.409Z,19.98
2022-07-27T03:47:28.479Z,22.23
2022-07-27T03:50:15.378Z,21.35
2022-07-27T03:52:48.462Z,20.48
2022-07-27T03:55:35.402Z,21.55
2022-07-27T03:58:15.360Z,22.05
2022-07-27T04:01:02.452Z,20.58
2022-07-27T04:03:35.514Z,19.83
2022-07-27T04:06:22.384Z,21.85
2022-07-27T04:09:08.199Z,20.75
2022-07-27T04:11:55.694Z,20.13
2022-07-27T04:14:36.400Z,17.52
2022-07-27T04:17:55.202Z,18.60
2022-07-27T04:20:44.382Z,18.75
2022-07-27T04:23:36.148Z,20.13
2022-07-27T04:26:11.514Z,19.27
2022-07-27T04:28:58.385Z,18.95
2022-07-27T04:31:39.405Z,19.20
2022-07-27T04:34:26.428Z,18.85
2022-07-27T04:36:59.476Z,20.30
2022-07-27T04:39:46.391Z,20.98
2022-07-27T04:42:26.397Z,23.05
2022-07-27T04:45:13.404Z,22.63
2022-07-27T04:47:53.442Z,21.30
2022-07-27T04:50:52.403Z,17.60
2022-07-27T04:53:53.951Z,19.15
2022-07-27T04:56:52.423Z,20.00
2022-07-27T04:59:46.403Z,20.42
2022-07-27T05:02:40.433Z,20.70
2022-07-27T05:05:27.404Z,19.98
2022-07-27T05:08:00.597Z,18.88
2022-07-27T05:10:47.407Z,17.10
2022-07-27T05:13:21.567Z,16.48
2022-07-27T05:16:08.461Z,17.90
2022-07-27T05:18:49.417Z,18.23
2022-07-27T05:21:43.449Z,18.83
2022-07-27T05:24:37.423Z,18.50
2022-07-27T05:27:31.431Z,17.30
2022-07-27T05:30:25.475Z,16.08
2022-07-27T05:33:19.448Z,17.13
2022-07-27T05:36:13.425Z,18.13
2022-07-27T05:39:11.822Z,17.38
2022-07-27T05:42:07.420Z,15.88
2022-07-27T05:44:54.481Z,16.70
2022-07-27T05:47:27.505Z,18.08
2022-07-27T05:50:14.442Z,16.75
2022-07-27T05:52:47.651Z,17.42
2022-07-27T05:55:34.434Z,15.85
2022-07-27T05:58:14.426Z,19.25
2022-07-27T06:01:01.543Z,18.25
2022-07-27T06:03:34.545Z,19.58
2022-07-27T06:06:40.453Z,21.83
2022-07-27T06:09:13.854Z,22.52
2022-07-27T06:12:01.467Z,21.73
2022-07-27T06:14:34.511Z,16.55
2022-07-27T06:17:22.450Z,18.20
2022-07-27T06:19:55.901Z,21.13
2022-07-27T06:23:07.511Z,20.77
2022-07-27T06:25:41.544Z,18.75
2022-07-27T06:28:28.441Z,18.80
2022-07-27T06:31:01.557Z,17.88
2022-07-27T06:33:48.465Z,17.10
2022-07-27T06:36:26.009Z,18.98
2022-07-27T06:39:12.841Z,19.55
2022-07-27T06:41:46.596Z,17.85
2022-07-27T06:44:33.463Z,17.13
2022-07-27T06:47:14.496Z,16.92
2022-07-27T06:50:02.488Z,19.88
2022-07-27T06:52:35.554Z,19.52
2022-07-27T06:55:22.450Z,17.13
2022-07-27T06:57:55.565Z,18.58
2022-07-27T07:00:42.563Z,19.30
2022-07-27T07:03:22.527Z,20.63
2022-07-27T07:06:16.462Z,22.45
2022-07-27T07:09:10.745Z,20.48
2022-07-27T07:11:57.484Z,19.60
2022-07-27T07:14:30.547Z,20.52
2022-07-27T07:17:17.488Z,20.38
2022-07-27T07:19:53.582Z,19.42
2022-07-27T07:22:40.485Z,20.75
2022-07-27T07:25:14.567Z,18.30
2022-07-27T07:28:02.483Z,20.33
2022-07-27T07:30:36.580Z,18.92
2022-07-27T07:33:23.496Z,19.85
2022-07-27T07:36:14.040Z,22.38
2022-07-27T07:38:54.495Z,19.35
2022-07-27T07:41:36.482Z,17.70
2022-07-27T07:44:16.494Z,18.27
2022-07-27T07:46:56.639Z,18.17
2022-07-27T07:49:39.476Z,19.52
2022-07-27T07:52:34.505Z,20.15
2022-07-27T07:55:28.506Z,18.80
2022-07-27T07:58:16.520Z,18.58
2022-07-27T08:00:56.495Z,18.53
2022-07-27T08:03:51.283Z,18.08
2022-07-27T08:06:46.526Z,17.17
2022-07-27T08:09:34.534Z,17.42
2022-07-27T08:12:09.614Z,15.25
2022-07-27T08:14:56.517Z,16.13
2022-07-27T08:17:29.648Z,17.58
2022-07-27T08:20:17.506Z,19.63
2022-07-27T08:22:58.519Z,17.70
2022-07-27T08:25:55.526Z,15.90
2022-07-27T08:28:42.571Z,18.15
2022-07-27T08:31:22.664Z,19.35
2022-07-27T08:34:06.500Z,19.95
2022-07-27T08:36:46.625Z,18.17
2022-07-27T08:40:06.159Z,16.92
2022-07-27T08:42:27.629Z,17.92
2022-07-27T08:45:07.527Z,17.05
2022-07-27T08:47:48.567Z,17.05
2022-07-27T08:50:24.732Z,17.48
2022-07-27T08:53:14.534Z,17.02
2022-07-27T08:55:57.553Z,17.08
2022-07-27T08:58:51.537Z,16.02
2022-07-27T09:01:39.590Z,18.42
2022-07-27T09:04:15.671Z,17.77
2022-07-27T09:07:02.535Z,18.10
2022-07-27T09:09:50.681Z,16.15
2022-07-27T09:12:39.541Z,18.05
2022-07-27T09:15:18.109Z,17.38
2022-07-27T09:18:04.587Z,18.48
2022-07-27T09:20:37.817Z,16.50
2022-07-27T09:23:33.565Z,16.45
2022-07-27T09:26:36.656Z,17.50
2022-07-27T09:29:23.554Z,18.33
2022-07-27T09:32:05.549Z,16.73
2022-07-27T09:34:52.553Z,19.00
2022-07-27T09:37:41.563Z,17.88
2022-07-27T09:40:37.567Z,16.48
2022-07-27T09:46:17.744Z,21.27
2022-07-27T09:49:04.715Z,21.58
2022-07-27T09:52:02.679Z,19.35
2022-07-27T09:54:58.585Z,17.80
2022-07-27T09:58:05.567Z,17.40
2022-07-27T10:00:45.593Z,19.95
2022-07-27T10:03:39.583Z,17.13
2022-07-27T10:06:27.579Z,18.23
2022-07-27T10:09:02.707Z,19.48
2022-07-27T10:11:49.597Z,19.67
2022-07-27T10:14:29.716Z,19.15
2022-07-27T10:17:09.589Z,19.38
2022-07-27T10:19:54.905Z,18.67
2022-07-27T10:22:56.637Z,22.90
2022-07-27T10:25:38.606Z,21.42
2022-07-27T10:28:24.598Z,19.17
2022-07-27T10:31:24.649Z,18.95
2022-07-27T10:34:00.815Z,17.27
2022-07-27T10:36:57.589Z,18.80
2022-07-27T10:39:49.610Z,19.67
2022-07-27T10:42:46.091Z,17.52
2022-07-27T10:46:01.413Z,18.50
2022-07-27T10:48:49.674Z,19.08
2022-07-27T10:51:22.696Z,19.40
2022-07-27T10:54:29.397Z,19.80
2022-07-27T10:57:05.685Z,17.17
2022-07-27T11:00:08.599Z,20.20
2022-07-27T11:02:55.605Z,20.27
2022-07-27T11:05:59.641Z,19.88
2022-07-27T11:08:47.019Z,16.30
2022-07-27T11:11:35.632Z,17.30
2022-07-27T11:14:18.892Z,19.63
2022-07-27T11:19:56.434Z,18.48
2022-07-27T11:23:33.978Z,22.13
2022-07-27T11:25:39.667Z,17.35
2022-07-27T11:28:35.364Z,18.75
2022-07-27T11:31:09.493Z,18.25
2022-07-27T11:34:03.480Z,17.88
2022-07-27T11:36:55.436Z,18.42
2022-07-27T11:40:27.792Z,19.33
2022-07-27T11:43:03.364Z,19.83
2022-07-27T11:45:57.457Z,19.35
2022-07-27T11:49:08.340Z,18.90
2022-07-27T11:52:03.366Z,18.90
2022-07-27T11:54:57.499Z,20.15
2022-07-27T11:57:51.379Z,20.77
2022-07-27T12:00:54.417Z,20.98
2022-07-27T12:03:48.414Z,19.90
2022-07-27T12:06:35.383Z,21.67
2022-07-27T12:09:13.043Z,18.42
2022-07-27T12:12:05.370Z,19.33
2022-07-27T12:14:46.143Z,18.75
2022-07-27T12:17:41.371Z,19.40
2022-07-27T12:20:30.407Z,18.00
2022-07-27T12:23:18.405Z,19.88
2022-07-27T12:26:15.431Z,18.05
2022-07-27T12:29:24.380Z,19.10
2022-07-27T12:32:11.554Z,18.77
2022-07-27T12:34:44.487Z,18.55
2022-07-27T12:37:38.409Z,16.88
2022-07-27T12:40:20.561Z,18.73
2022-07-27T12:43:12.416Z,19.83
2022-07-27T12:45:46.576Z,18.05
2022-07-27T12:48:44.432Z,19.20
2022-07-27T12:51:17.480Z,18.38
2022-07-27T12:54:04.439Z,20.55
2022-07-27T12:56:37.479Z,18.58
2022-07-27T12:59:28.395Z,19.23
2022-07-27T13:02:08.486Z,19.83
2022-07-27T13:04:56.410Z,19.20
2022-07-27T13:07:36.425Z,18.50
2022-07-27T13:10:31.418Z,18.90
2022-07-27T13:13:18.413Z,18.50
2022-07-27T13:15:58.412Z,19.95
2022-07-27T13:18:52.398Z,20.85
2022-07-27T13:21:46.446Z,19.45
2022-07-27T13:24:33.442Z,17.80
2022-07-27T13:27:13.419Z,20.23
2022-07-27T13:30:00.435Z,20.98
2022-07-27T13:32:40.603Z,19.70
2022-07-27T13:35:34.417Z,16.40
2022-07-27T13:38:28.416Z,18.42
2022-07-27T13:41:15.441Z,19.50
2022-07-27T13:43:48.558Z,19.73
2022-07-27T13:46:35.440Z,20.10
2022-07-27T13:49:09.770Z,18.42
2022-07-27T13:51:56.496Z,19.70
2022-07-27T13:54:30.572Z,18.33
2022-07-27T13:57:17.574Z,19.85
2022-07-27T13:59:50.728Z,16.95
2022-07-27T14:02:37.577Z,16.55
2022-07-27T14:05:12.923Z,19.67
2022-07-27T14:08:03.335Z,19.25
2022-07-27T14:10:46.441Z,19.95
2022-07-27T14:13:33.445Z,19.17
2022-07-27T14:16:16.472Z,19.50
2022-07-27T14:19:12.752Z,20.63
2022-07-27T14:21:59.458Z,19.30
2022-07-27T14:24:37.598Z,19.77
2022-07-27T14:27:24.450Z,19.20
2022-07-27T14:29:57.627Z,18.67
2022-07-27T14:32:44.457Z,17.92
2022-07-27T14:35:17.589Z,18.10
2022-07-27T14:38:06.465Z,18.92
2022-07-27T14:40:46.457Z,18.70
2022-07-27T14:43:34.446Z,19.17
2022-07-27T14:46:07.578Z,17.20
2022-07-27T14:49:09.917Z,18.13
2022-07-27T14:51:50.495Z,19.63
2022-07-27T14:54:44.474Z,17.27
2022-07-27T14:57:38.482Z,17.17
2022-07-27T15:00:36.237Z,16.75
2022-07-27T15:03:31.478Z,17.88
2022-07-27T15:06:25.480Z,17.98
2022-07-27T15:09:12.787Z,15.98
2022-07-27T15:11:53.504Z,16.00
2022-07-27T15:14:47.508Z,18.25
2022-07-27T15:17:34.520Z,15.00
2022-07-27T15:20:32.488Z,17.63
2022-07-27T15:23:26.503Z,16.20
2022-07-27T15:26:13.489Z,17.60
2022-07-27T15:28:54.496Z,16.60
2022-07-27T15:31:48.593Z,15.57
2022-07-27T15:34:42.507Z,16.25
2022-07-27T15:37:29.507Z,17.17
2022-07-27T15:40:29.504Z,15.38
2022-07-27T15:43:19.506Z,16.92
2022-07-27T15:45:56.582Z,16.42
2022-07-27T15:48:43.516Z,16.30
2022-07-27T15:51:18.835Z,16.70
2022-07-27T15:54:05.512Z,18.52
2022-07-27T15:56:38.646Z,17.13
2022-07-27T15:59:26.521Z,17.55
2022-07-27T16:02:06.533Z,16.60
2022-07-27T16:05:01.552Z,16.73
2022-07-27T16:07:55.533Z,17.15
2022-07-27T16:10:51.542Z,17.92
2022-07-27T16:13:45.521Z,16.65
2022-07-27T16:16:39.568Z,15.77
2022-07-27T16:19:33.516Z,15.38
2022-07-27T16:22:20.530Z,15.98
2022-07-27T16:25:00.507Z,17.40
2022-07-27T16:27:54.546Z,16.83
2022-07-27T16:30:41.532Z,16.23
2022-07-27T16:33:21.519Z,15.48
2022-07-27T16:36:08.913Z,17.77
2022-07-27T16:38:50.325Z,16.88
2022-07-27T16:41:37.558Z,16.95
2022-07-27T16:44:10.603Z,16.52
2022-07-27T16:46:57.600Z,17.70
2022-07-27T16:49:37.582Z,17.80
2022-07-27T16:52:31.532Z,17.42
2022-07-27T16:55:18.560Z,16.10
2022-07-27T16:57:51.706Z,18.65
2022-07-27T17:00:39.014Z,18.10
2022-07-27T17:03:19.557Z,17.70
2022-07-27T17:06:13.553Z,16.48
2022-07-27T17:09:00.568Z,16.42
2022-07-27T17:11:37.474Z,17.73
2022-07-27T17:14:24.557Z,16.35
2022-07-27T17:17:04.550Z,17.17
2022-07-27T17:19:58.570Z,15.18
2022-07-27T17:22:52.560Z,16.90
2022-07-27T17:25:33.542Z,17.40
2022-07-27T17:28:13.585Z,16.50
2022-07-27T17:30:46.689Z,14.82
2022-07-27T17:33:33.585Z,17.08
2022-07-27T17:36:09.722Z,17.67
2022-07-27T17:39:01.601Z,15.45
2022-07-27T17:41:34.676Z,16.20
2022-07-27T17:44:21.578Z,17.17
2022-07-27T17:46:54.726Z,15.98
2022-07-27T17:49:41.592Z,15.73
2022-07-27T17:52:14.695Z,15.30
2022-07-27T17:55:01.575Z,17.45
2022-07-27T17:57:34.653Z,17.60
2022-07-27T18:00:21.608Z,18.75
2022-07-27T18:03:01.579Z,15.73
2022-07-27T18:05:55.643Z,16.63
2022-07-27T18:08:42.583Z,16.45
2022-07-27T18:11:15.895Z,15.93
2022-07-27T18:14:04.608Z,16.55
2022-07-27T18:16:40.678Z,17.60
2022-07-27T18:19:34.598Z,15.85
2022-07-27T18:22:28.601Z,16.52
2022-07-27T18:25:16.628Z,18.10
2022-07-27T18:27:56.603Z,18.55
2022-07-27T18:30:43.654Z,19.05
2022-07-27T18:33:16.715Z,18.67
2022-07-27T18:36:03.611Z,17.38
2022-07-27T18:38:43.607Z,16.60
2022-07-27T18:41:37.597Z,16.05
2022-07-27T18:44:25.648Z,16.45
2022-07-27T18:46:58.681Z,16.23
2022-07-27T18:49:45.602Z,17.35
2022-07-27T18:52:26.633Z,18.80
2022-07-27T18:55:13.599Z,17.30
2022-07-27T18:57:54.704Z,19.20
2022-07-27T19:00:48.614Z,19.38
2022-07-27T19:03:37.605Z,19.30
2022-07-27T19:06:17.865Z,20.20
2022-07-27T19:09:05.722Z,18.90
2022-07-27T19:11:47.038Z,19.17
2022-07-27T19:14:40.617Z,20.33
2022-07-27T19:17:22.726Z,18.38
2022-07-27T19:20:16.634Z,18.45
2022-07-27T19:23:10.629Z,18.10
2022-07-27T19:26:06.635Z,18.35
2022-07-27T19:28:58.632Z,17.05
2022-07-27T19:31:31.797Z,17.85
2022-07-27T19:34:18.635Z,19.55
2022-07-27T19:36:52.739Z,17.88
2022-07-27T19:39:57.529Z,19.42
2022-07-27T19:42:39.631Z,18.70
2022-07-27T19:45:26.704Z,19.40
2022-07-27T19:48:01.524Z,17.48
2022-07-27T19:50:48.660Z,17.20
2022-07-27T19:53:28.635Z,17.17
2022-07-27T19:56:22.665Z,18.45
2022-07-27T19:59:16.703Z,19.75
2022-07-27T20:02:03.814Z,17.60
2022-07-27T20:04:41.173Z,18.00
2022-07-27T20:07:28.649Z,19.60
2022-07-27T20:10:01.777Z,17.60
2022-07-27T20:12:48.652Z,18.42
2022-07-27T20:15:22.446Z,18.17
2022-07-27T20:18:09.667Z,19.63
2022-07-27T20:20:49.636Z,17.42
2022-07-27T20:23:44.703Z,18.33
2022-07-27T20:26:31.673Z,20.23
2022-07-27T20:29:04.775Z,21.13
2022-07-27T20:31:52.168Z,18.33
2022-07-27T20:34:29.792Z,19.25
2022-07-27T20:37:16.680Z,20.38
2022-07-27T20:39:49.941Z,20.35
2022-07-27T20:42:36.685Z,19.95
2022-07-27T20:45:14.996Z,20.13
2022-07-27T20:48:02.696Z,20.23
2022-07-27T20:50:35.752Z,20.85
2022-07-27T20:53:22.688Z,19.88
2022-07-27T20:55:55.775Z,20.55
2022-07-27T20:58:42.673Z,19.48
2022-07-27T21:01:15.952Z,20.10
2022-07-27T21:04:02.686Z,18.38
2022-07-27T21:06:35.796Z,19.13
2022-07-27T21:09:22.689Z,20.05
2022-07-27T21:11:55.797Z,18.80
2022-07-27T21:14:42.708Z,21.85
2022-07-27T21:17:23.742Z,21.52
2022-07-27T21:20:11.736Z,20.05
2022-07-27T21:22:52.728Z,19.02
2022-07-27T21:25:46.705Z,19.58
2022-07-27T21:28:33.729Z,19.05
2022-07-27T21:31:06.809Z,19.80
2022-07-27T21:33:54.854Z,20.90
2022-07-27T21:36:35.709Z,20.33
2022-07-27T21:39:31.723Z,20.83
2022-07-27T21:42:18.779Z,20.48
2022-07-27T21:44:52.634Z,20.70
2022-07-27T21:47:39.725Z,22.88
2022-07-27T21:50:13.805Z,21.63
2022-07-27T21:53:00.707Z,20.15
2022-07-27T21:55:33.909Z,23.05
2022-07-27T21:58:21.754Z,23.20
2022-07-27T22:00:54.908Z,23.33
2022-07-27T22:03:43.750Z,21.60
2022-07-27T22:06:17.881Z,21.98
2022-07-27T22:09:04.727Z,23.33
2022-07-27T22:11:44.843Z,23.25
2022-07-27T22:14:31.730Z,22.77
2022-07-27T22:17:04.978Z,23.23
2022-07-27T22:19:58.748Z,22.02
2022-07-27T22:22:52.803Z,22.58
2022-07-27T22:25:46.714Z,23.33
2022-07-27T22:28:33.729Z,23.67
2022-07-27T22:31:21.587Z,23.40
2022-07-27T22:34:09.898Z,23.70
2022-07-27T22:36:49.719Z,22.70
2022-07-27T22:39:43.770Z,25.38
2022-07-27T22:42:37.738Z,24.00
2022-07-27T22:45:24.812Z,23.80
2022-07-27T22:47:57.821Z,24.50
2022-07-27T22:50:44.751Z,25.08
2022-07-27T22:53:24.765Z,24.30
2022-07-27T22:56:12.748Z,23.80
2022-07-27T22:58:52.767Z,24.25
2022-07-27T23:01:48.268Z,24.10
2022-07-27T23:04:35.744Z,23.98
2022-07-27T23:07:08.863Z,24.02
2022-07-27T23:09:57.187Z,24.98
2022-07-27T23:12:37.758Z,23.48
2022-07-27T23:15:31.772Z,24.52
2022-07-27T23:18:19.841Z,24.27
2022-07-27T23:20:59.828Z,23.67
2022-07-27T23:23:54.320Z,23.75
2022-07-27T23:26:40.788Z,24.98
2022-07-27T23:29:13.869Z,26.52
2022-07-27T23:32:01.895Z,25.80
2022-07-27T23:34:41.775Z,25.80
2022-07-27T23:37:28.770Z,24.00
2022-07-27T23:40:01.863Z,24.60
2022-07-27T23:42:48.784Z,24.65
2022-07-27T23:45:21.989Z,24.98
2022-07-27T23:48:08.784Z,24.83
2022-07-27T23:50:42.938Z,27.05
2022-07-27T23:53:30.766Z,25.75
2022-07-27T23:56:03.877Z,24.65
2022-07-27T23:58:51.822Z,24.70
